Portage la Prairie, Canada
Current Conditions -  °F | °C
As of 3:00 AM on Wednesday 28 Jan 2015 (Local Time) from CYWG Reporting Station
Freezing Drizzle Freezing Drizzle  
Wind Chill: 23°   Ceiling: 300
Heat Index: 30°   Visibility: 1.2mi
Dew Point: 28°   Wind: 8mph
Humidity: 93%   Direction: 90°E
Pressure: 29.89"   Gusts: NA
Location:  49.97°N, 98.29°W
Report Text: CYWG 280900Z 09007KT 1 1/4SM -FZDZ BR OVC003 M01/M02 A2989 RMK ST8 SLP135
Loading
Personal Weather Stations






























Interactive Weather Map New forecast layout! Learn more

10-Day Weather Forecast

Advertisements
Track Severe Weather on mobile